Station Historical Data
Daily Summary for February 19, 2017 Units:  Both    English   Metric
« Previous Day
Next Day »
Daily Weekly Monthly Yearly Custom
  High: Low: Average:
Temperature: 49.3 °F /  9.6 °C 29.1 °F /  -1.6 °C 38.7 °F /  3.7 °C
Dew Point: 39.6 °F /  4.2 °C 26.8 °F /  -2.9 °C 34.2 °F /  1.2 °C
Humidity: 92% 68% 84%
Wind Speed: 15.0mph /  24.1km/h - 4.1mph /  6.6km/h
Wind Gust: 19.0mph /  30.6km/h - -
Wind- - SW
Pressure: 30.16 in /  1021.2 hPa 29.73 in /  1006.7 hPa -
Precipitation: 0.00 in /  0 mm    
Historical Graphs
 
 
Tabular Data for February 19, 2017
Time Temperature Dew Point Pressure Wind Wind Speed Wind Gust Humidity Rainfall Rate (Hourly)
00:04 37.9 °F /  3.3 °C 34.4 °F /  1.3 °C 29.73in /  1006.7hPa SW 4.0mph /  6.4km/h 9.0mph /  14.5km/h 87% 0.00in /  0mm
00:09 37.8 °F /  3.2 °C 34.0 °F /  1.1 °C 29.73in /  1006.7hPa SSW 4.0mph /  6.4km/h 9.0mph /  14.5km/h 86% 0.00in /  0mm
00:14 37.7 °F /  3.2 °C 34.2 °F /  1.2 °C 29.73in /  1006.7hPa SW 4.0mph /  6.4km/h 9.0mph /  14.5km/h 87% 0.00in /  0mm
00:19 37.9 °F /  3.3 °C 34.4 °F /  1.3 °C 29.73in /  1006.7hPa SW 6.0mph /  9.7km/h 8.0mph /  12.9km/h 87% 0.00in /  0mm
00:24 38.0 °F /  3.3 °C 34.5 °F /  1.4 °C 29.74in /  1007hPa SW 3.0mph /  4.8km/h 9.0mph /  14.5km/h 87% 0.00in /  0mm
00:29 38.2 °F /  3.4 °C 34.7 °F /  1.5 °C 29.74in /  1007hPa SW 4.0mph /  6.4km/h 10.0mph /  16.1km/h 87% 0.00in /  0mm
00:34 38.4 °F /  3.6 °C 34.9 °F /  1.6 °C 29.74in /  1007hPa WSW 7.0mph /  11.3km/h 9.0mph /  14.5km/h 87% 0.00in /  0mm
00:39 38.5 °F /  3.6 °C 35.0 °F /  1.7 °C 29.74in /  1007hPa SW 5.0mph /  8km/h 8.0mph /  12.9km/h 87% 0.00in /  0mm
00:44 38.7 °F /  3.7 °C 34.9 °F /  1.6 °C 29.74in /  1007hPa SW 4.0mph /  6.4km/h 9.0mph /  14.5km/h 86% 0.00in /  0mm
00:49 38.8 °F /  3.8 °C 35.0 °F /  1.7 °C 29.74in /  1007hPa SW 10.0mph /  16.1km/h 11.0mph /  17.7km/h 86% 0.00in /  0mm
00:54 39.0 °F /  3.9 °C 35.2 °F /  1.8 °C 29.74in /  1007hPa SW 6.0mph /  9.7km/h 9.0mph /  14.5km/h 86% 0.00in /  0mm
00:59 39.1 °F /  3.9 °C 35.3 °F /  1.8 °C 29.74in /  1007hPa SW 4.0mph /  6.4km/h 10.0mph /  16.1km/h 86% 0.00in /  0mm
01:05 39.1 °F /  3.9 °C 35.3 °F /  1.8 °C 29.74in /  1007hPa WSW 4.0mph /  6.4km/h 8.0mph /  12.9km/h 86% 0.00in /  0mm
01:10 39.1 °F /  3.9 °C 35.3 °F /  1.8 °C 29.74in /  1007hPa South 3.0mph /  4.8km/h 10.0mph /  16.1km/h 86% 0.00in /  0mm
01:15 39.2 °F /  4 °C 35.4 °F /  1.9 °C 29.74in /  1007hPa SSW 3.0mph /  4.8km/h 9.0mph /  14.5km/h 86% 0.00in /  0mm
01:20 39.3 °F /  4.1 °C 35.2 °F /  1.8 °C 29.74in /  1007hPa SW 4.0mph /  6.4km/h 8.0mph /  12.9km/h 85% 0.00in /  0mm
01:25 39.2 °F /  4 °C 35.1 °F /  1.7 °C 29.74in /  1007hPa SW 4.0mph /  6.4km/h 8.0mph /  12.9km/h 85% 0.00in /  0mm
01:30 39.3 °F /  4.1 °C 35.2 °F /  1.8 °C 29.75in /  1007.3hPa SW 4.0mph /  6.4km/h 9.0mph /  14.5km/h 85% 0.00in /  0mm
01:35 39.3 °F /  4.1 °C 35.2 °F /  1.8 °C 29.75in /  1007.3hPa SW 4.0mph /  6.4km/h 9.0mph /  14.5km/h 85% 0.00in /  0mm
01:40 39.3 °F /  4.1 °C 35.2 °F /  1.8 °C 29.75in /  1007.3hPa SW 4.0mph /  6.4km/h 9.0mph /  14.5km/h 85% 0.00in /  0mm
01:45 39.3 °F /  4.1 °C 35.2 °F /  1.8 °C 29.75in /  1007.3hPa SW 4.0mph /  6.4km/h 9.0mph /  14.5km/h 85% 0.00in /  0mm
01:50 39.1 °F /  3.9 °C 35.0 °F /  1.7 °C 29.75in /  1007.3hPa SW 3.0mph /  4.8km/h 8.0mph /  12.9km/h 85% 0.00in /  0mm
01:55 39.1 °F /  3.9 °C 35.0 °F /  1.7 °C 29.76in /  1007.7hPa SW 4.0mph /  6.4km/h 9.0mph /  14.5km/h 85% 0.00in /  0mm
02:00 39.0 °F /  3.9 °C 34.9 °F /  1.6 °C 29.76in /  1007.7hPa WSW 4.0mph /  6.4km/h 11.0mph /  17.7km/h 85% 0.00in /  0mm
02:05 38.9 °F /  3.8 °C 34.8 °F /  1.6 °C 29.76in /  1007.7hPa WSW 5.0mph /  8km/h 11.0mph /  17.7km/h 85% 0.00in /  0mm
02:10 38.8 °F /  3.8 °C 34.7 °F /  1.5 °C 29.76in /  1007.7hPa WSW 6.0mph /  9.7km/h 9.0mph /  14.5km/h 85% 0.00in /  0mm
02:15 38.8 °F /  3.8 °C 34.7 °F /  1.5 °C 29.76in /  1007.7hPa SW 2.0mph /  3.2km/h 9.0mph /  14.5km/h 85% 0.00in /  0mm
02:20 38.7 °F /  3.7 °C 34.9 °F /  1.6 °C 29.76in /  1007.7hPa SSW 2.0mph /  3.2km/h 9.0mph /  14.5km/h 86% 0.00in /  0mm
02:25 38.7 °F /  3.7 °C 34.9 °F /  1.6 °C 29.76in /  1007.7hPa SW 4.0mph /  6.4km/h 9.0mph /  14.5km/h 86% 0.00in /  0mm
02:30 38.8 °F /  3.8 °C 35.0 °F /  1.7 °C 29.76in /  1007.7hPa SW 4.0mph /  6.4km/h 8.0mph /  12.9km/h 86% 0.00in /  0mm
02:35 38.6 °F /  3.7 °C 34.8 °F /  1.6 °C 29.77in /  1008hPa SW 4.0mph /  6.4km/h 8.0mph /  12.9km/h 86% 0.00in /  0mm
02:40 38.4 °F /  3.6 °C 34.6 °F /  1.4 °C 29.77in /  1008hPa SW 1.0mph /  1.6km/h 6.0mph /  9.7km/h 86% 0.00in /  0mm
02:45 38.2 °F /  3.4 °C 34.4 °F /  1.3 °C 29.77in /  1008hPa SW 7.0mph /  11.3km/h 7.0mph /  11.3km/h 86% 0.00in /  0mm
02:50 38.1 °F /  3.4 °C 34.6 °F /  1.4 °C 29.77in /  1008hPa WSW 2.0mph /  3.2km/h 7.0mph /  11.3km/h 87% 0.00in /  0mm
02:55 38.1 °F /  3.4 °C 34.6 °F /  1.4 °C 29.77in /  1008hPa South 3.0mph /  4.8km/h 6.0mph /  9.7km/h 87% 0.00in /  0mm
03:00 38.1 °F /  3.4 °C 34.6 °F /  1.4 °C 29.77in /  1008hPa SW 3.0mph /  4.8km/h 6.0mph /  9.7km/h 87% 0.00in /  0mm
03:05 38.1 °F /  3.4 °C 34.6 °F /  1.4 °C 29.77in /  1008hPa SW 4.0mph /  6.4km/h 9.0mph /  14.5km/h 87% 0.00in /  0mm
03:10 38.0 °F /  3.3 °C 34.5 °F /  1.4 °C 29.77in /  1008hPa SW 4.0mph /  6.4km/h 9.0mph /  14.5km/h 87% 0.00in /  0mm
03:15 38.1 °F /  3.4 °C 34.6 °F /  1.4 °C 29.78in /  1008.4hPa SW 5.0mph /  8km/h 8.0mph /  12.9km/h 87% 0.00in /  0mm
03:20 38.1 °F /  3.4 °C 34.6 °F /  1.4 °C 29.78in /  1008.4hPa SW 6.0mph /  9.7km/h 8.0mph /  12.9km/h 87% 0.00in /  0mm
03:25 38.2 °F /  3.4 °C 34.7 °F /  1.5 °C 29.78in /  1008.4hPa SW 5.0mph /  8km/h 12.0mph /  19.3km/h 87% 0.00in /  0mm
03:30 38.1 °F /  3.4 °C 34.6 °F /  1.4 °C 29.78in /  1008.4hPa SW 8.0mph /  12.9km/h 10.0mph /  16.1km/h 87% 0.00in /  0mm
03:35 38.1 °F /  3.4 °C 34.6 °F /  1.4 °C 29.78in /  1008.4hPa SW 5.0mph /  8km/h 10.0mph /  16.1km/h 87% 0.00in /  0mm
03:40 38.0 °F /  3.3 °C 34.5 °F /  1.4 °C 29.78in /  1008.4hPa SW 5.0mph /  8km/h 11.0mph /  17.7km/h 87% 0.00in /  0mm
03:45 37.9 °F /  3.3 °C 34.4 °F /  1.3 °C 29.78in /  1008.4hPa SW 4.0mph /  6.4km/h 11.0mph /  17.7km/h 87% 0.00in /  0mm
03:50 37.7 °F /  3.2 °C 34.2 °F /  1.2 °C 29.78in /  1008.4hPa SW 3.0mph /  4.8km/h 7.0mph /  11.3km/h 87% 0.00in /  0mm
03:55 37.6 °F /  3.1 °C 34.4 °F /  1.3 °C 29.79in /  1008.7hPa West 3.0mph /  4.8km/h 6.0mph /  9.7km/h 88% 0.00in /  0mm
04:00 37.5 °F /  3.1 °C 34.3 °F /  1.3 °C 29.79in /  1008.7hPa SW 3.0mph /  4.8km/h 9.0mph /  14.5km/h 88% 0.00in /  0mm
04:05 37.5 °F /  3.1 °C 34.3 °F /  1.3 °C 29.79in /  1008.7hPa WSW 2.0mph /  3.2km/h 6.0mph /  9.7km/h 88% 0.00in /  0mm
04:10 37.3 °F /  2.9 °C 34.1 °F /  1.2 °C 29.79in /  1008.7hPa SW 3.0mph /  4.8km/h 6.0mph /  9.7km/h 88% 0.00in /  0mm
04:15 37.2 °F /  2.9 °C 34.0 °F /  1.1 °C 29.80in /  1009hPa SW 3.0mph /  4.8km/h 7.0mph /  11.3km/h 88% 0.00in /  0mm
04:19 37.1 °F /  2.8 °C 33.9 °F /  1.1 °C 29.80in /  1009hPa WSW 1.0mph /  1.6km/h 4.0mph /  6.4km/h 88% 0.00in /  0mm
04:25 36.8 °F /  2.7 °C 33.6 °F /  0.9 °C 29.80in /  1009hPa West 1.0mph /  1.6km/h 4.0mph /  6.4km/h 88% 0.00in /  0mm
04:30 36.8 °F /  2.7 °C 33.9 °F /  1.1 °C 29.80in /  1009hPa SW 3.0mph /  4.8km/h 5.0mph /  8km/h 89% 0.00in /  0mm
04:35 36.8 °F /  2.7 °C 33.9 °F /  1.1 °C 29.81in /  1009.4hPa WSW 1.0mph /  1.6km/h 5.0mph /  8km/h 89% 0.00in /  0mm
04:40 36.7 °F /  2.6 °C 33.8 °F /  1 °C 29.81in /  1009.4hPa WSW 2.0mph /  3.2km/h 5.0mph /  8km/h 89% 0.00in /  0mm
04:45 36.6 °F /  2.6 °C 33.7 °F /  0.9 °C 29.81in /  1009.4hPa SW 2.0mph /  3.2km/h 6.0mph /  9.7km/h 89% 0.00in /  0mm
04:50 36.4 °F /  2.4 °C 33.5 °F /  0.8 °C 29.81in /  1009.4hPa WSW 1.0mph /  1.6km/h 4.0mph /  6.4km/h 89% 0.00in /  0mm
04:55 36.1 °F /  2.3 °C 33.2 °F /  0.7 °C 29.81in /  1009.4hPa WSW 1.0mph /  1.6km/h 2.0mph /  3.2km/h 89% 0.00in /  0mm
05:00 35.9 °F /  2.2 °C 33.0 °F /  0.6 °C 29.81in /  1009.4hPa Calm   3.0mph /  4.8km/h 89% 0.00in /  0mm
05:04 35.8 °F /  2.1 °C 32.9 °F /  0.5 °C 29.81in /  1009.4hPa SSW 1.0mph /  1.6km/h 3.0mph /  4.8km/h 89% 0.00in /  0mm
05:10 35.7 °F /  2.1 °C 33.1 °F /  0.6 °C 29.81in /  1009.4hPa SSW 2.0mph /  3.2km/h 4.0mph /  6.4km/h 90% 0.00in /  0mm
05:15 35.7 °F /  2.1 °C 33.1 °F /  0.6 °C 29.82in /  1009.7hPa SSW 2.0mph /  3.2km/h 4.0mph /  6.4km/h 90% 0.00in /  0mm
05:20 35.5 °F /  1.9 °C 32.9 °F /  0.5 °C 29.82in /  1009.7hPa SSW 2.0mph /  3.2km/h 5.0mph /  8km/h 90% 0.00in /  0mm
05:25 35.3 °F /  1.8 °C 32.7 °F /  0.4 °C 29.83in /  1010hPa SW 1.0mph /  1.6km/h 5.0mph /  8km/h 90% 0.00in /  0mm
05:30 35.4 °F /  1.9 °C 32.8 °F /  0.4 °C 29.83in /  1010hPa SW 1.0mph /  1.6km/h 3.0mph /  4.8km/h 90% 0.00in /  0mm
05:34 35.1 °F /  1.7 °C 32.5 °F /  0.3 °C 29.83in /  1010hPa SSW 2.0mph /  3.2km/h 3.0mph /  4.8km/h 90% 0.00in /  0mm
05:39 35.2 °F /  1.8 °C 32.6 °F /  0.3 °C 29.83in /  1010hPa SW 1.0mph /  1.6km/h 4.0mph /  6.4km/h 90% 0.00in /  0mm
05:45 35.1 °F /  1.7 °C 32.5 °F /  0.3 °C 29.83in /  1010hPa SSW 2.0mph /  3.2km/h 5.0mph /  8km/h 90% 0.00in /  0mm
05:50 35.1 °F /  1.7 °C 32.5 °F /  0.3 °C 29.83in /  1010hPa SW 2.0mph /  3.2km/h 4.0mph /  6.4km/h 90% 0.00in /  0mm
05:55 35.2 °F /  1.8 °C 32.6 °F /  0.3 °C 29.83in /  1010hPa SW 2.0mph /  3.2km/h 4.0mph /  6.4km/h 90% 0.00in /  0mm
06:00 35.1 °F /  1.7 °C 32.5 °F /  0.3 °C 29.84in /  1010.4hPa SW 1.0mph /  1.6km/h 4.0mph /  6.4km/h 90% 0.00in /  0mm
06:05 35.0 °F /  1.7 °C 32.4 °F /  0.2 °C 29.84in /  1010.4hPa SW 1.0mph /  1.6km/h 5.0mph /  8km/h 90% 0.00in /  0mm
06:10 34.8 °F /  1.6 °C 32.2 °F /  0.1 °C 29.84in /  1010.4hPa SW 1.0mph /  1.6km/h 5.0mph /  8km/h 90% 0.00in /  0mm
06:15 35.0 °F /  1.7 °C 32.6 °F /  0.3 °C 29.84in /  1010.4hPa SW 2.0mph /  3.2km/h 4.0mph /  6.4km/h 91% 0.00in /  0mm
06:20 35.0 °F /  1.7 °C 32.6 °F /  0.3 °C 29.84in /  1010.4hPa SSW 2.0mph /  3.2km/h 4.0mph /  6.4km/h 91% 0.00in /  0mm
06:25 35.1 °F /  1.7 °C 32.7 °F /  0.4 °C 29.84in /  1010.4hPa SSW 2.0mph /  3.2km/h 4.0mph /  6.4km/h 91% 0.00in /  0mm
06:30 35.1 °F /  1.7 °C 32.7 °F /  0.4 °C 29.84in /  1010.4hPa SSW 2.0mph /  3.2km/h 6.0mph /  9.7km/h 91% 0.00in /  0mm
06:34 35.2 °F /  1.8 °C 32.8 °F /  0.4 °C 29.85in /  1010.7hPa SW 3.0mph /  4.8km/h 6.0mph /  9.7km/h 91% 0.00in /  0mm
06:39 35.1 °F /  1.7 °C 32.7 °F /  0.4 °C 29.85in /  1010.7hPa SW 3.0mph /  4.8km/h 4.0mph /  6.4km/h 91% 0.00in /  0mm
06:44 34.9 °F /  1.6 °C 32.5 °F /  0.3 °C 29.85in /  1010.7hPa SSW 1.0mph /  1.6km/h 5.0mph /  8km/h 91% 0.00in /  0mm
06:49 34.8 °F /  1.6 °C 32.4 °F /  0.2 °C 29.85in /  1010.7hPa WSW 3.0mph /  4.8km/h 5.0mph /  8km/h 91% 0.00in /  0mm
06:55 34.8 °F /  1.6 °C 32.4 °F /  0.2 °C 29.85in /  1010.7hPa SW 6.0mph /  9.7km/h 7.0mph /  11.3km/h 91% 0.00in /  0mm
07:05 34.7 °F /  1.5 °C 32.3 °F /  0.2 °C 29.86in /  1011.1hPa SSW 4.0mph /  6.4km/h 5.0mph /  8km/h 91% 0.00in /  0mm
07:09 34.7 °F /  1.5 °C 32.3 °F /  0.2 °C 29.86in /  1011.1hPa SSW 3.0mph /  4.8km/h 7.0mph /  11.3km/h 91% 0.00in /  0mm
07:15 34.7 °F /  1.5 °C 32.3 °F /  0.2 °C 29.86in /  1011.1hPa SSW 3.0mph /  4.8km/h 7.0mph /  11.3km/h 91% 0.00in /  0mm
07:20 34.7 °F /  1.5 °C 32.3 °F /  0.2 °C 29.86in /  1011.1hPa SW 3.0mph /  4.8km/h 5.0mph /  8km/h 91% 0.00in /  0mm
07:25 34.6 °F /  1.4 °C 32.2 °F /  0.1 °C 29.86in /  1011.1hPa SSW 2.0mph /  3.2km/h 5.0mph /  8km/h 91% 0.00in /  0mm
07:35 34.8 °F /  1.6 °C 32.7 °F /  0.4 °C 29.87in /  1011.4hPa SW 3.0mph /  4.8km/h 6.0mph /  9.7km/h 92% 0.00in /  0mm
07:39 34.8 °F /  1.6 °C 32.7 °F /  0.4 °C 29.87in /  1011.4hPa SW 3.0mph /  4.8km/h 6.0mph /  9.7km/h 92% 0.00in /  0mm
07:45 35.1 °F /  1.7 °C 33.0 °F /  0.6 °C 29.88in /  1011.7hPa SW 3.0mph /  4.8km/h 7.0mph /  11.3km/h 92% 0.00in /  0mm
07:50 35.3 °F /  1.8 °C 33.2 °F /  0.7 °C 29.88in /  1011.7hPa SW 3.0mph /  4.8km/h 7.0mph /  11.3km/h 92% 0.00in /  0mm
07:54 35.6 °F /  2 °C 33.5 °F /  0.8 °C 29.89in /  1012.1hPa West 2.0mph /  3.2km/h 6.0mph /  9.7km/h 92% 0.00in /  0mm
07:59 35.9 °F /  2.2 °C 33.8 °F /  1 °C 29.89in /  1012.1hPa South 4.0mph /  6.4km/h 5.0mph /  8km/h 92% 0.00in /  0mm
08:04 36.2 °F /  2.3 °C 33.8 °F /  1 °C 29.89in /  1012.1hPa Calm   6.0mph /  9.7km/h 91% 0.00in /  0mm
08:09 36.6 °F /  2.6 °C 34.2 °F /  1.2 °C 29.89in /  1012.1hPa SW 3.0mph /  4.8km/h 8.0mph /  12.9km/h 91% 0.00in /  0mm
08:14 37.0 °F /  2.8 °C 34.6 °F /  1.4 °C 29.89in /  1012.1hPa SW 4.0mph /  6.4km/h 9.0mph /  14.5km/h 91% 0.00in /  0mm
08:20 37.3 °F /  2.9 °C 34.9 °F /  1.6 °C 29.89in /  1012.1hPa SW 5.0mph /  8km/h 7.0mph /  11.3km/h 91% 0.00in /  0mm
08:25 37.8 °F /  3.2 °C 35.1 °F /  1.7 °C 29.90in /  1012.4hPa WSW 3.0mph /  4.8km/h 8.0mph /  12.9km/h 90% 0.00in /  0mm
08:30 38.2 °F /  3.4 °C 35.2 °F /  1.8 °C 29.90in /  1012.4hPa SW 4.0mph /  6.4km/h 10.0mph /  16.1km/h 89% 0.00in /  0mm
08:35 38.6 °F /  3.7 °C 35.4 °F /  1.9 °C 29.90in /  1012.4hPa SW 2.0mph /  3.2km/h 7.0mph /  11.3km/h 88% 0.00in /  0mm
08:39 39.0 °F /  3.9 °C 35.7 °F /  2.1 °C 29.90in /  1012.4hPa SW 4.0mph /  6.4km/h 9.0mph /  14.5km/h 88% 0.00in /  0mm
08:44 39.3 °F /  4.1 °C 35.8 °F /  2.1 °C 29.90in /  1012.4hPa SW 4.0mph /  6.4km/h 9.0mph /  14.5km/h 87% 0.00in /  0mm
08:50 39.7 °F /  4.3 °C 36.1 °F /  2.3 °C 29.90in /  1012.4hPa SW 4.0mph /  6.4km/h 8.0mph /  12.9km/h 87% 0.00in /  0mm
08:55 40.0 °F /  4.4 °C 36.2 °F /  2.3 °C 29.90in /  1012.4hPa WSW 4.0mph /  6.4km/h 8.0mph /  12.9km/h 86% 0.00in /  0mm
09:00 40.2 °F /  4.6 °C 36.1 °F /  2.3 °C 29.90in /  1012.4hPa SW 4.0mph /  6.4km/h 9.0mph /  14.5km/h 85% 0.00in /  0mm
09:04 40.0 °F /  4.4 °C 35.9 °F /  2.2 °C 29.90in /  1012.4hPa SSW 4.0mph /  6.4km/h 9.0mph /  14.5km/h 85% 0.00in /  0mm
09:09 40.2 °F /  4.6 °C 36.1 °F /  2.3 °C 29.90in /  1012.4hPa SW 4.0mph /  6.4km/h 10.0mph /  16.1km/h 85% 0.00in /  0mm
09:14 40.4 °F /  4.7 °C 35.9 °F /  2.2 °C 29.90in /  1012.4hPa SSW 3.0mph /  4.8km/h 11.0mph /  17.7km/h 84% 0.00in /  0mm
09:19 40.8 °F /  4.9 °C 36.3 °F /  2.4 °C 29.91in /  1012.8hPa SW 6.0mph /  9.7km/h 9.0mph /  14.5km/h 84% 0.00in /  0mm
09:24 40.9 °F /  4.9 °C 36.4 °F /  2.4 °C 29.91in /  1012.8hPa WSW 4.0mph /  6.4km/h 11.0mph /  17.7km/h 84% 0.00in /  0mm
09:29 41.3 °F /  5.2 °C 36.8 °F /  2.7 °C 29.91in /  1012.8hPa WNW 7.0mph /  11.3km/h 11.0mph /  17.7km/h 84% 0.00in /  0mm
09:34 41.2 °F /  5.1 °C 36.4 °F /  2.4 °C 29.91in /  1012.8hPa SW 8.0mph /  12.9km/h 9.0mph /  14.5km/h 83% 0.00in /  0mm
09:39 41.4 °F /  5.2 °C 36.6 °F /  2.6 °C 29.91in /  1012.8hPa SW 5.0mph /  8km/h 9.0mph /  14.5km/h 83% 0.00in /  0mm
09:44 41.8 °F /  5.4 °C 36.7 °F /  2.6 °C 29.91in /  1012.8hPa SW 5.0mph /  8km/h 9.0mph /  14.5km/h 82% 0.00in /  0mm
09:50 41.8 °F /  5.4 °C 36.7 °F /  2.6 °C 29.92in /  1013.1hPa SW 5.0mph /  8km/h 10.0mph /  16.1km/h 82% 0.00in /  0mm
09:55 41.9 °F /  5.5 °C 36.8 °F /  2.7 °C 29.92in /  1013.1hPa SW 6.0mph /  9.7km/h 10.0mph /  16.1km/h 82% 0.00in /  0mm
10:00 42.5 °F /  5.8 °C 37.1 °F /  2.8 °C 29.92in /  1013.1hPa SW 5.0mph /  8km/h 9.0mph /  14.5km/h 81% 0.00in /  0mm
10:05 42.6 °F /  5.9 °C 37.2 °F /  2.9 °C 29.92in /  1013.1hPa SW 5.0mph /  8km/h 9.0mph /  14.5km/h 81% 0.00in /  0mm
10:09 42.7 °F /  5.9 °C 37.3 °F /  2.9 °C 29.91in /  1012.8hPa SW 3.0mph /  4.8km/h 10.0mph /  16.1km/h 81% 0.00in /  0mm
10:14 42.7 °F /  5.9 °C 37.0 °F /  2.8 °C 29.92in /  1013.1hPa SW 2.0mph /  3.2km/h 11.0mph /  17.7km/h 80% 0.00in /  0mm
10:19 43.1 °F /  6.2 °C 37.3 °F /  2.9 °C 29.92in /  1013.1hPa South 5.0mph /  8km/h 10.0mph /  16.1km/h 80% 0.00in /  0mm
10:24 43.1 °F /  6.2 °C 37.3 °F /  2.9 °C 29.92in /  1013.1hPa SW 6.0mph /  9.7km/h 10.0mph /  16.1km/h 80% 0.00in /  0mm
10:29 43.0 °F /  6.1 °C 37.3 °F /  2.9 °C 29.92in /  1013.1hPa South 4.0mph /  6.4km/h 11.0mph /  17.7km/h 80% 0.00in /  0mm
10:34 43.0 °F /  6.1 °C 37.3 °F /  2.9 °C 29.92in /  1013.1hPa SW 6.0mph /  9.7km/h 12.0mph /  19.3km/h 80% 0.00in /  0mm
10:39 43.2 °F /  6.2 °C 37.4 °F /  3 °C 29.92in /  1013.1hPa SSW 7.0mph /  11.3km/h 11.0mph /  17.7km/h 80% 0.00in /  0mm
10:44 44.1 °F /  6.7 °C 38.0 °F /  3.3 °C 29.93in /  1013.4hPa SW 6.0mph /  9.7km/h 11.0mph /  17.7km/h 79% 0.00in /  0mm
10:49 44.0 °F /  6.7 °C 37.6 °F /  3.1 °C 29.93in /  1013.4hPa WSW 6.0mph /  9.7km/h 11.0mph /  17.7km/h 78% 0.00in /  0mm
10:54 44.0 °F /  6.7 °C 37.6 °F /  3.1 °C 29.93in /  1013.4hPa SW 7.0mph /  11.3km/h 12.0mph /  19.3km/h 78% 0.00in /  0mm
11:00 43.9 °F /  6.6 °C 37.5 °F /  3.1 °C 29.93in /  1013.4hPa SW 7.0mph /  11.3km/h 13.0mph /  20.9km/h 78% 0.00in /  0mm
11:05 43.9 °F /  6.6 °C 37.5 °F /  3.1 °C 29.93in /  1013.4hPa SW 4.0mph /  6.4km/h 12.0mph /  19.3km/h 78% 0.00in /  0mm
11:10 44.3 °F /  6.8 °C 37.9 °F /  3.3 °C 29.93in /  1013.4hPa West 5.0mph /  8km/h 11.0mph /  17.7km/h 78% 0.00in /  0mm
11:14 44.4 °F /  6.9 °C 38.3 °F /  3.5 °C 29.93in /  1013.4hPa South 9.0mph /  14.5km/h 13.0mph /  20.9km/h 79% 0.00in /  0mm
11:19 44.6 °F /  7 °C 37.8 °F /  3.2 °C 29.94in /  1013.8hPa WSW 8.0mph /  12.9km/h 11.0mph /  17.7km/h 77% 0.00in /  0mm
11:24 45.2 °F /  7.3 °C 38.1 °F /  3.4 °C 29.93in /  1013.4hPa WSW 9.0mph /  14.5km/h 10.0mph /  16.1km/h 76% 0.00in /  0mm
11:29 45.1 °F /  7.3 °C 38.3 °F /  3.5 °C 29.93in /  1013.4hPa WSW 6.0mph /  9.7km/h 13.0mph /  20.9km/h 77% 0.00in /  0mm
11:34 45.1 °F /  7.3 °C 38.0 °F /  3.3 °C 29.94in /  1013.8hPa SW 7.0mph /  11.3km/h 13.0mph /  20.9km/h 76% 0.00in /  0mm
11:39 45.1 °F /  7.3 °C 38.0 °F /  3.3 °C 29.93in /  1013.4hPa WSW 9.0mph /  14.5km/h 13.0mph /  20.9km/h 76% 0.00in /  0mm
11:44 45.0 °F /  7.2 °C 37.9 °F /  3.3 °C 29.93in /  1013.4hPa SW 8.0mph /  12.9km/h 14.0mph /  22.5km/h 76% 0.00in /  0mm
11:49 45.3 °F /  7.4 °C 38.2 °F /  3.4 °C 29.93in /  1013.4hPa SW 9.0mph /  14.5km/h 14.0mph /  22.5km/h 76% 0.00in /  0mm
11:54 45.2 °F /  7.3 °C 38.1 °F /  3.4 °C 29.93in /  1013.4hPa SW 8.0mph /  12.9km/h 15.0mph /  24.1km/h 76% 0.00in /  0mm
11:59 45.4 °F /  7.4 °C 38.3 °F /  3.5 °C 29.93in /  1013.4hPa SW 8.0mph /  12.9km/h 15.0mph /  24.1km/h 76% 0.00in /  0mm
12:05 45.8 °F /  7.7 °C 38.7 °F /  3.7 °C 29.92in /  1013.1hPa SW 8.0mph /  12.9km/h 17.0mph /  27.4km/h 76% 0.00in /  0mm
12:10 46.0 °F /  7.8 °C 38.5 °F /  3.6 °C 29.92in /  1013.1hPa SSE 6.0mph /  9.7km/h 13.0mph /  20.9km/h 75% 0.00in /  0mm
12:15 46.1 °F /  7.8 °C 39.0 °F /  3.9 °C 29.92in /  1013.1hPa SW 5.0mph /  8km/h 15.0mph /  24.1km/h 76% 0.00in /  0mm
12:19 46.1 °F /  7.8 °C 38.6 °F /  3.7 °C 29.92in /  1013.1hPa WSW 8.0mph /  12.9km/h 15.0mph /  24.1km/h 75% 0.00in /  0mm
12:24 46.7 °F /  8.2 °C 38.9 °F /  3.8 °C 29.92in /  1013.1hPa WSW 15.0mph /  24.1km/h 15.0mph /  24.1km/h 74% 0.00in /  0mm
12:29 46.6 °F /  8.1 °C 39.1 °F /  3.9 °C 29.92in /  1013.1hPa WSW 8.0mph /  12.9km/h 13.0mph /  20.9km/h 75% 0.00in /  0mm
12:34 46.5 °F /  8.1 °C 38.3 °F /  3.5 °C 29.92in /  1013.1hPa West 9.0mph /  14.5km/h 13.0mph /  20.9km/h 73% 0.00in /  0mm
12:39 46.3 °F /  7.9 °C 38.1 °F /  3.4 °C 29.93in /  1013.4hPa SW 9.0mph /  14.5km/h 17.0mph /  27.4km/h 73% 0.00in /  0mm
12:44 45.9 °F /  7.7 °C 38.1 °F /  3.4 °C 29.92in /  1013.1hPa WSW 13.0mph /  20.9km/h 19.0mph /  30.6km/h 74% 0.00in /  0mm
12:49 46.0 °F /  7.8 °C 38.2 °F /  3.4 °C 29.93in /  1013.4hPa WSW 10.0mph /  16.1km/h 19.0mph /  30.6km/h 74% 0.00in /  0mm
12:54 46.3 °F /  7.9 °C 38.8 °F /  3.8 °C 29.93in /  1013.4hPa WSW 10.0mph /  16.1km/h 17.0mph /  27.4km/h 75% 0.00in /  0mm
13:04 47.0 °F /  8.3 °C 38.4 °F /  3.6 °C 29.93in /  1013.4hPa WSW 9.0mph /  14.5km/h 16.0mph /  25.7km/h 72% 0.00in /  0mm
13:09 46.8 °F /  8.2 °C 38.9 °F /  3.8 °C 29.93in /  1013.4hPa WSW 9.0mph /  14.5km/h 16.0mph /  25.7km/h 74% 0.00in /  0mm
13:15 46.8 °F /  8.2 °C 38.6 °F /  3.7 °C 29.93in /  1013.4hPa WSW 9.0mph /  14.5km/h 16.0mph /  25.7km/h 73% 0.00in /  0mm
13:20 46.7 °F /  8.2 °C 38.5 °F /  3.6 °C 29.93in /  1013.4hPa SW 9.0mph /  14.5km/h 15.0mph /  24.1km/h 73% 0.00in /  0mm
13:24 46.7 °F /  8.2 °C 38.9 °F /  3.8 °C 29.93in /  1013.4hPa SW 9.0mph /  14.5km/h 16.0mph /  25.7km/h 74% 0.00in /  0mm
13:29 46.5 °F /  8.1 °C 38.3 °F /  3.5 °C 29.93in /  1013.4hPa WSW 13.0mph /  20.9km/h 15.0mph /  24.1km/h 73% 0.00in /  0mm
13:34 47.3 °F /  8.5 °C 38.7 °F /  3.7 °C 29.93in /  1013.4hPa SW 12.0mph /  19.3km/h 14.0mph /  22.5km/h 72% 0.00in /  0mm
13:39 46.9 °F /  8.3 °C 38.3 °F /  3.5 °C 29.93in /  1013.4hPa WSW 11.0mph /  17.7km/h 17.0mph /  27.4km/h 72% 0.00in /  0mm
13:44 47.4 °F /  8.6 °C 38.5 °F /  3.6 °C 29.93in /  1013.4hPa WSW 9.0mph /  14.5km/h 14.0mph /  22.5km/h 71% 0.00in /  0mm
13:49 47.7 °F /  8.7 °C 38.8 °F /  3.8 °C 29.94in /  1013.8hPa WSW 9.0mph /  14.5km/h 14.0mph /  22.5km/h 71% 0.00in /  0mm
13:54 48.1 °F /  8.9 °C 38.8 °F /  3.8 °C 29.94in /  1013.8hPa SW 13.0mph /  20.9km/h 17.0mph /  27.4km/h 70% 0.00in /  0mm
13:59 48.5 °F /  9.2 °C 39.2 °F /  4 °C 29.94in /  1013.8hPa SW 8.0mph /  12.9km/h 17.0mph /  27.4km/h 70% 0.00in /  0mm
14:04 48.2 °F /  9 °C 38.9 °F /  3.8 °C 29.94in /  1013.8hPa SW 9.0mph /  14.5km/h 16.0mph /  25.7km/h 70% 0.00in /  0mm
14:09 48.3 °F /  9.1 °C 38.6 °F /  3.7 °C 29.94in /  1013.8hPa WSW 9.0mph /  14.5km/h 18.0mph /  29km/h 69% 0.00in /  0mm
14:14 48.2 °F /  9 °C 38.9 °F /  3.8 °C 29.94in /  1013.8hPa WSW 9.0mph /  14.5km/h 18.0mph /  29km/h 70% 0.00in /  0mm
14:19 48.6 °F /  9.2 °C 38.9 °F /  3.8 °C 29.94in /  1013.8hPa WSW 10.0mph /  16.1km/h 18.0mph /  29km/h 69% 0.00in /  0mm
14:25 48.0 °F /  8.9 °C 38.3 °F /  3.5 °C 29.94in /  1013.8hPa SSW 9.0mph /  14.5km/h 17.0mph /  27.4km/h 69% 0.00in /  0mm
14:29 48.6 °F /  9.2 °C 38.9 °F /  3.8 °C 29.93in /  1013.4hPa WSW 10.0mph /  16.1km/h 17.0mph /  27.4km/h 69% 0.00in /  0mm
14:34 49.3 °F /  9.6 °C 39.6 °F /  4.2 °C 29.93in /  1013.4hPa West 11.0mph /  17.7km/h 15.0mph /  24.1km/h 69% 0.00in /  0mm
14:39 48.9 °F /  9.4 °C 38.8 °F /  3.8 °C 29.94in /  1013.8hPa SW 8.0mph /  12.9km/h 16.0mph /  25.7km/h 68% 0.00in /  0mm
14:44 48.6 °F /  9.2 °C 38.9 °F /  3.8 °C 29.94in /  1013.8hPa South 8.0mph /  12.9km/h 19.0mph /  30.6km/h 69% 0.00in /  0mm
14:49 47.9 °F /  8.8 °C 38.6 °F /  3.7 °C 29.94in /  1013.8hPa SW 5.0mph /  8km/h 18.0mph /  29km/h 70% 0.00in /  0mm
14:54 47.5 °F /  8.6 °C 38.2 °F /  3.4 °C 29.94in /  1013.8hPa SW 5.0mph /  8km/h 17.0mph /  27.4km/h 70% 0.00in /  0mm
14:59 46.9 °F /  8.3 °C 38.0 °F /  3.3 °C 29.94in /  1013.8hPa WSW 6.0mph /  9.7km/h 16.0mph /  25.7km/h 71% 0.00in /  0mm
15:04 47.0 °F /  8.3 °C 38.4 °F /  3.6 °C 29.94in /  1013.8hPa WSW 9.0mph /  14.5km/h 17.0mph /  27.4km/h 72% 0.00in /  0mm
15:09 47.1 °F /  8.4 °C 38.2 °F /  3.4 °C 29.95in /  1014.1hPa WSW 9.0mph /  14.5km/h 17.0mph /  27.4km/h 71% 0.00in /  0mm
15:14 46.9 °F /  8.3 °C 38.0 °F /  3.3 °C 29.95in /  1014.1hPa WSW 7.0mph /  11.3km/h 16.0mph /  25.7km/h 71% 0.00in /  0mm
15:19 46.3 °F /  7.9 °C 37.8 °F /  3.2 °C 29.95in /  1014.1hPa West 6.0mph /  9.7km/h 14.0mph /  22.5km/h 72% 0.00in /  0mm
15:24 46.0 °F /  7.8 °C 37.8 °F /  3.2 °C 29.96in /  1014.4hPa WSW 8.0mph /  12.9km/h 19.0mph /  30.6km/h 73% 0.00in /  0mm
15:29 45.7 °F /  7.6 °C 37.5 °F /  3.1 °C 29.96in /  1014.4hPa SW 10.0mph /  16.1km/h 17.0mph /  27.4km/h 73% 0.00in /  0mm
15:34 45.4 °F /  7.4 °C 37.2 °F /  2.9 °C 29.97in /  1014.8hPa SSW 3.0mph /  4.8km/h 15.0mph /  24.1km/h 73% 0.00in /  0mm
15:39 45.0 °F /  7.2 °C 37.2 °F /  2.9 °C 29.97in /  1014.8hPa WSW 8.0mph /  12.9km/h 16.0mph /  25.7km/h 74% 0.00in /  0mm
15:44 44.7 °F /  7.1 °C 36.9 °F /  2.7 °C 29.97in /  1014.8hPa WSW 9.0mph /  14.5km/h 16.0mph /  25.7km/h 74% 0.00in /  0mm
15:49 44.5 °F /  6.9 °C 37.1 °F /  2.8 °C 29.97in /  1014.8hPa WSW 9.0mph /  14.5km/h 16.0mph /  25.7km/h 75% 0.00in /  0mm
15:54 44.1 °F /  6.7 °C 36.7 °F /  2.6 °C 29.98in /  1015.1hPa SW 13.0mph /  20.9km/h 18.0mph /  29km/h 75% 0.00in /  0mm
15:59 43.5 °F /  6.4 °C 36.4 °F /  2.4 °C 29.98in /  1015.1hPa SSE 5.0mph /  8km/h 17.0mph /  27.4km/h 76% 0.00in /  0mm
16:04 43.2 °F /  6.2 °C 36.5 °F /  2.5 °C 29.98in /  1015.1hPa West 5.0mph /  8km/h 17.0mph /  27.4km/h 77% 0.00in /  0mm
16:09 43.1 °F /  6.2 °C 36.0 °F /  2.2 °C 29.98in /  1015.1hPa WSW 8.0mph /  12.9km/h 17.0mph /  27.4km/h 76% 0.00in /  0mm
16:14 43.0 °F /  6.1 °C 36.3 °F /  2.4 °C 29.98in /  1015.1hPa WSW 8.0mph /  12.9km/h 15.0mph /  24.1km/h 77% 0.00in /  0mm
16:19 43.0 °F /  6.1 °C 36.3 °F /  2.4 °C 29.98in /  1015.1hPa WSW 8.0mph /  12.9km/h 16.0mph /  25.7km/h 77% 0.00in /  0mm
16:24 42.9 °F /  6.1 °C 36.2 °F /  2.3 °C 29.98in /  1015.1hPa WSW 8.0mph /  12.9km/h 16.0mph /  25.7km/h 77% 0.00in /  0mm
16:29 42.6 °F /  5.9 °C 35.9 °F /  2.2 °C 29.98in /  1015.1hPa WSW 7.0mph /  11.3km/h 16.0mph /  25.7km/h 77% 0.00in /  0mm
16:34 42.4 °F /  5.8 °C 36.0 °F /  2.2 °C 29.98in /  1015.1hPa SW 11.0mph /  17.7km/h 15.0mph /  24.1km/h 78% 0.00in /  0mm
16:39 42.2 °F /  5.7 °C 35.8 °F /  2.1 °C 29.99in /  1015.5hPa WSW 9.0mph /  14.5km/h 14.0mph /  22.5km/h 78% 0.00in /  0mm
16:44 42.2 °F /  5.7 °C 35.8 °F /  2.1 °C 29.99in /  1015.5hPa WSW 8.0mph /  12.9km/h 14.0mph /  22.5km/h 78% 0.00in /  0mm
16:54 41.4 °F /  5.2 °C 35.4 °F /  1.9 °C 30.00in /  1015.8hPa WSW 8.0mph /  12.9km/h 15.0mph /  24.1km/h 79% 0.00in /  0mm
16:59 41.2 °F /  5.1 °C 35.2 °F /  1.8 °C 30.00in /  1015.8hPa WSW 8.0mph /  12.9km/h 15.0mph /  24.1km/h 79% 0.00in /  0mm
17:04 40.8 °F /  4.9 °C 35.1 °F /  1.7 °C 30.00in /  1015.8hPa WSW 3.0mph /  4.8km/h 12.0mph /  19.3km/h 80% 0.00in /  0mm
17:09 40.5 °F /  4.7 °C 35.1 °F /  1.7 °C 30.01in /  1016.1hPa SSW 7.0mph /  11.3km/h 11.0mph /  17.7km/h 81% 0.00in /  0mm
17:14 40.3 °F /  4.6 °C 34.9 °F /  1.6 °C 30.01in /  1016.1hPa WSW 8.0mph /  12.9km/h 14.0mph /  22.5km/h 81% 0.00in /  0mm
17:19 40.1 °F /  4.5 °C 34.7 °F /  1.5 °C 30.01in /  1016.1hPa WSW 7.0mph /  11.3km/h 14.0mph /  22.5km/h 81% 0.00in /  0mm
17:24 39.8 °F /  4.3 °C 34.4 °F /  1.3 °C 30.02in /  1016.5hPa WSW 6.0mph /  9.7km/h 14.0mph /  22.5km/h 81% 0.00in /  0mm
17:29 39.6 °F /  4.2 °C 34.6 °F /  1.4 °C 30.02in /  1016.5hPa WSW 5.0mph /  8km/h 10.0mph /  16.1km/h 82% 0.00in /  0mm
17:34 39.3 °F /  4.1 °C 34.3 °F /  1.3 °C 30.02in /  1016.5hPa WSW 5.0mph /  8km/h 10.0mph /  16.1km/h 82% 0.00in /  0mm
17:39 39.1 °F /  3.9 °C 34.1 °F /  1.2 °C 30.02in /  1016.5hPa SW 4.0mph /  6.4km/h 6.0mph /  9.7km/h 82% 0.00in /  0mm
17:44 38.8 °F /  3.8 °C 34.1 °F /  1.2 °C 30.03in /  1016.8hPa SSW 3.0mph /  4.8km/h 6.0mph /  9.7km/h 83% 0.00in /  0mm
17:49 38.6 °F /  3.7 °C 33.9 °F /  1.1 °C 30.03in /  1016.8hPa SW 1.0mph /  1.6km/h 6.0mph /  9.7km/h 83% 0.00in /  0mm
17:54 38.4 °F /  3.6 °C 34.0 °F /  1.1 °C 30.03in /  1016.8hPa SW 3.0mph /  4.8km/h 6.0mph /  9.7km/h 84% 0.00in /  0mm
17:59 38.2 °F /  3.4 °C 33.8 °F /  1 °C 30.03in /  1016.8hPa SW 3.0mph /  4.8km/h 6.0mph /  9.7km/h 84% 0.00in /  0mm
18:04 37.9 °F /  3.3 °C 33.5 °F /  0.8 °C 30.04in /  1017.2hPa SW 2.0mph /  3.2km/h 5.0mph /  8km/h 84% 0.00in /  0mm
18:09 37.7 °F /  3.2 °C 33.6 °F /  0.9 °C 30.04in /  1017.2hPa WSW 3.0mph /  4.8km/h 7.0mph /  11.3km/h 85% 0.00in /  0mm
18:14 37.6 °F /  3.1 °C 33.5 °F /  0.8 °C 30.04in /  1017.2hPa SW 1.0mph /  1.6km/h 6.0mph /  9.7km/h 85% 0.00in /  0mm
18:19 37.4 °F /  3 °C 33.3 °F /  0.7 °C 30.05in /  1017.5hPa SW 2.0mph /  3.2km/h 6.0mph /  9.7km/h 85% 0.00in /  0mm
18:24 37.2 °F /  2.9 °C 33.4 °F /  0.8 °C 30.05in /  1017.5hPa SW 3.0mph /  4.8km/h 5.0mph /  8km/h 86% 0.00in /  0mm
18:29 36.9 °F /  2.7 °C 33.1 °F /  0.6 °C 30.05in /  1017.5hPa SW 2.0mph /  3.2km/h 5.0mph /  8km/h 86% 0.00in /  0mm
18:34 36.8 °F /  2.7 °C 33.0 °F /  0.6 °C 30.06in /  1017.8hPa SW 2.0mph /  3.2km/h 5.0mph /  8km/h 86% 0.00in /  0mm
18:39 36.7 °F /  2.6 °C 33.2 °F /  0.7 °C 30.06in /  1017.8hPa SW 2.0mph /  3.2km/h 4.0mph /  6.4km/h 87% 0.00in /  0mm
18:44 36.6 °F /  2.6 °C 33.1 °F /  0.6 °C 30.06in /  1017.8hPa WSW 2.0mph /  3.2km/h 5.0mph /  8km/h 87% 0.00in /  0mm
18:49 36.4 °F /  2.4 °C 32.9 °F /  0.5 °C 30.06in /  1017.8hPa SW 3.0mph /  4.8km/h 5.0mph /  8km/h 87% 0.00in /  0mm
18:54 36.4 °F /  2.4 °C 32.9 °F /  0.5 °C 30.06in /  1017.8hPa SW 2.0mph /  3.2km/h 4.0mph /  6.4km/h 87% 0.00in /  0mm
18:59 36.2 °F /  2.3 °C 32.7 °F /  0.4 °C 30.07in /  1018.2hPa Calm   2.0mph /  3.2km/h 87% 0.00in /  0mm
19:04 36.0 °F /  2.2 °C 32.5 °F /  0.3 °C 30.07in /  1018.2hPa SW 1.0mph /  1.6km/h 4.0mph /  6.4km/h 87% 0.00in /  0mm
19:09 35.8 °F /  2.1 °C 32.6 °F /  0.3 °C 30.08in /  1018.5hPa SW 1.0mph /  1.6km/h 4.0mph /  6.4km/h 88% 0.00in /  0mm
19:14 35.8 °F /  2.1 °C 32.6 °F /  0.3 °C 30.08in /  1018.5hPa Calm   3.0mph /  4.8km/h 88% 0.00in /  0mm
19:19 35.5 °F /  1.9 °C 32.3 °F /  0.2 °C 30.08in /  1018.5hPa SW 1.0mph /  1.6km/h 2.0mph /  3.2km/h 88% 0.00in /  0mm
19:24 35.3 °F /  1.8 °C 32.1 °F /  0.1 °C 30.08in /  1018.5hPa Calm   2.0mph /  3.2km/h 88% 0.00in /  0mm
19:29 35.1 °F /  1.7 °C 31.9 °F /  -0.1 °C 30.08in /  1018.5hPa SW 2.0mph /  3.2km/h 3.0mph /  4.8km/h 88% 0.00in /  0mm
19:34 35.1 °F /  1.7 °C 32.2 °F /  0.1 °C 30.08in /  1018.5hPa SW 2.0mph /  3.2km/h 4.0mph /  6.4km/h 89% 0.00in /  0mm
19:39 34.8 °F /  1.6 °C 31.9 °F /  -0.1 °C 30.09in /  1018.8hPa SW 2.0mph /  3.2km/h 4.0mph /  6.4km/h 89% 0.00in /  0mm
19:44 34.6 °F /  1.4 °C 31.7 °F /  -0.2 °C 30.09in /  1018.8hPa SW 1.0mph /  1.6km/h 2.0mph /  3.2km/h 89% 0.00in /  0mm
19:49 34.4 °F /  1.3 °C 31.5 °F /  -0.3 °C 30.09in /  1018.8hPa Calm   2.0mph /  3.2km/h 89% 0.00in /  0mm
19:54 34.3 °F /  1.3 °C 31.4 °F /  -0.3 °C 30.09in /  1018.8hPa Calm     89% 0.00in /  0mm
19:59 34.1 °F /  1.2 °C 31.2 °F /  -0.4 °C 30.10in /  1019.2hPa Calm     89% 0.00in /  0mm
20:04 34.0 °F /  1.1 °C 31.1 °F /  -0.5 °C 30.10in /  1019.2hPa Calm     89% 0.00in /  0mm
20:09 33.8 °F /  1 °C 31.2 °F /  -0.4 °C 30.10in /  1019.2hPa Calm     90% 0.00in /  0mm
20:14 33.5 °F /  0.8 °C 30.9 °F /  -0.6 °C 30.10in /  1019.2hPa Calm     90% 0.00in /  0mm
20:19 33.5 °F /  0.8 °C 30.9 °F /  -0.6 °C 30.10in /  1019.2hPa Calm     90% 0.00in /  0mm
20:24 33.5 °F /  0.8 °C 30.9 °F /  -0.6 °C 30.10in /  1019.2hPa Calm     90% 0.00in /  0mm
20:29 33.4 °F /  0.8 °C 30.8 °F /  -0.7 °C 30.10in /  1019.2hPa Calm     90% 0.00in /  0mm
20:34 33.0 °F /  0.6 °C 30.4 °F /  -0.9 °C 30.10in /  1019.2hPa Calm     90% 0.00in /  0mm
20:39 32.8 °F /  0.4 °C 30.2 °F /  -1 °C 30.11in /  1019.5hPa Calm     90% 0.00in /  0mm
20:44 32.5 °F /  0.3 °C 29.9 °F /  -1.2 °C 30.11in /  1019.5hPa Calm     90% 0.00in /  0mm
20:49 32.3 °F /  0.2 °C 29.7 °F /  -1.3 °C 30.11in /  1019.5hPa Calm     90% 0.00in /  0mm
20:54 32.2 °F /  0.1 °C 29.9 °F /  -1.2 °C 30.11in /  1019.5hPa Calm     91% 0.00in /  0mm
20:59 32.0 °F /  0 °C 29.4 °F /  -1.4 °C 30.12in /  1019.9hPa Calm     90% 0.00in /  0mm
21:04 31.9 °F /  -0.1 °C 29.6 °F /  -1.3 °C 30.12in /  1019.9hPa Calm     91% 0.00in /  0mm
21:09 31.7 °F /  -0.2 °C 29.4 °F /  -1.4 °C 30.12in /  1019.9hPa Calm     91% 0.00in /  0mm
21:14 31.6 °F /  -0.2 °C 29.3 °F /  -1.5 °C 30.12in /  1019.9hPa Calm     91% 0.00in /  0mm
21:19 31.4 °F /  -0.3 °C 29.1 °F /  -1.6 °C 30.12in /  1019.9hPa Calm     91% 0.00in /  0mm
21:24 31.2 °F /  -0.4 °C 28.9 °F /  -1.7 °C 30.12in /  1019.9hPa Calm     91% 0.00in /  0mm
21:29 31.4 °F /  -0.3 °C 29.1 °F /  -1.6 °C 30.12in /  1019.9hPa Calm     91% 0.00in /  0mm
21:34 31.5 °F /  -0.3 °C 29.2 °F /  -1.6 °C 30.12in /  1019.9hPa Calm     91% 0.00in /  0mm
21:39 31.4 °F /  -0.3 °C 29.1 °F /  -1.6 °C 30.12in /  1019.9hPa Calm     91% 0.00in /  0mm
21:44 31.4 °F /  -0.3 °C 29.1 °F /  -1.6 °C 30.12in /  1019.9hPa Calm     91% 0.00in /  0mm
21:49 31.1 °F /  -0.5 °C 28.8 °F /  -1.8 °C 30.12in /  1019.9hPa Calm     91% 0.00in /  0mm
21:54 31.1 °F /  -0.5 °C 28.8 °F /  -1.8 °C 30.13in /  1020.2hPa Calm     91% 0.00in /  0mm
21:59 30.9 °F /  -0.6 °C 28.6 °F /  -1.9 °C 30.13in /  1020.2hPa Calm     91% 0.00in /  0mm
22:04 30.8 °F /  -0.7 °C 28.5 °F /  -1.9 °C 30.13in /  1020.2hPa Calm     91% 0.00in /  0mm
22:09 30.8 °F /  -0.7 °C 28.5 °F /  -1.9 °C 30.13in /  1020.2hPa Calm     91% 0.00in /  0mm
22:14 30.5 °F /  -0.8 °C 28.2 °F /  -2.1 °C 30.14in /  1020.5hPa Calm     91% 0.00in /  0mm
22:19 30.4 °F /  -0.9 °C 28.1 °F /  -2.2 °C 30.14in /  1020.5hPa Calm     91% 0.00in /  0mm
22:24 30.2 °F /  -1 °C 27.9 °F /  -2.3 °C 30.14in /  1020.5hPa Calm     91% 0.00in /  0mm
22:29 30.3 °F /  -0.9 °C 28.0 °F /  -2.2 °C 30.15in /  1020.9hPa Calm     91% 0.00in /  0mm
22:34 30.3 °F /  -0.9 °C 28.0 °F /  -2.2 °C 30.15in /  1020.9hPa Calm     91% 0.00in /  0mm
22:39 30.2 °F /  -1 °C 27.9 °F /  -2.3 °C 30.15in /  1020.9hPa Calm     91% 0.00in /  0mm
22:44 30.3 °F /  -0.9 °C 28.0 °F /  -2.2 °C 30.15in /  1020.9hPa Calm   3.0mph /  4.8km/h 91% 0.00in /  0mm
22:49 30.7 °F /  -0.7 °C 28.4 °F /  -2 °C 30.15in /  1020.9hPa Calm   3.0mph /  4.8km/h 91% 0.00in /  0mm
22:54 30.5 °F /  -0.8 °C 28.2 °F /  -2.1 °C 30.15in /  1020.9hPa SW 1.0mph /  1.6km/h 3.0mph /  4.8km/h 91% 0.00in /  0mm
22:59 30.3 °F /  -0.9 °C 28.0 °F /  -2.2 °C 30.16in /  1021.2hPa Calm     91% 0.00in /  0mm
23:04 29.9 °F /  -1.2 °C 27.6 °F /  -2.4 °C 30.15in /  1020.9hPa Calm     91% 0.00in /  0mm
23:09 29.7 °F /  -1.3 °C 27.4 °F /  -2.6 °C 30.16in /  1021.2hPa Calm     91% 0.00in /  0mm
23:14 29.7 °F /  -1.3 °C 27.7 °F /  -2.4 °C 30.16in /  1021.2hPa Calm     92% 0.00in /  0mm
23:19 29.7 °F /  -1.3 °C 27.4 °F /  -2.6 °C 30.16in /  1021.2hPa Calm     91% 0.00in /  0mm
23:24 29.7 °F /  -1.3 °C 27.7 °F /  -2.4 °C 30.16in /  1021.2hPa Calm     92% 0.00in /  0mm
23:29 29.3 °F /  -1.5 °C 27.0 °F /  -2.8 °C 30.16in /  1021.2hPa Calm   2.0mph /  3.2km/h 91% 0.00in /  0mm
23:34 29.2 °F /  -1.6 °C 26.9 °F /  -2.8 °C 30.16in /  1021.2hPa Calm   2.0mph /  3.2km/h 91% 0.00in /  0mm
23:39 29.1 °F /  -1.6 °C 27.1 °F /  -2.7 °C 30.16in /  1021.2hPa Calm     92% 0.00in /  0mm
23:44 29.1 °F /  -1.6 °C 27.1 °F /  -2.7 °C 30.16in /  1021.2hPa Calm     92% 0.00in /  0mm
23:49 29.1 °F /  -1.6 °C 26.8 °F /  -2.9 °C 30.16in /  1021.2hPa Calm     91% 0.00in /  0mm
23:54 29.3 °F /  -1.5 °C 27.3 °F /  -2.6 °C 30.16in /  1021.2hPa Calm     92% 0.00in /  0mm
23:59 29.7 °F /  -1.3 °C 27.7 °F /  -2.4 °C 30.16in /  1021.2hPa Calm     92% 0.00in /  0mm
Buffalo, New York, USA
Compliments of Weather Underground - 2.5 mb